Aledo, IL (61231)

10:12 PM CDT on April 27, 2017 (GMT -0500)
KILALEDO2 | | Change Station
Active Advisory: Flood Warning

Elev 735 ft 41.20 °N, 90.76 °W | Updated 1 second ago

Clear
Clear
44.4 °F
Feels Like 44 °F
N
0.0
Wind Variable Wind from West
Gusts 0.0 mph

Today
High -- | Low -- °F
--% Chance of Precip.
Yesterday
High -- | Low -- °F
Precip. -- in
Pressure 29.84 in
Visibility 10.0 miles
Clouds Clear
Windchill 44 °F
Dew Point 37 °F
Humidity 75%
Rainfall 0.61 in
Snow Depth Not available.
6:05 AM 7:56 PM
Waxing Crescent, 4% visible
METAR KMLI 280252Z 00000KT 10SM CLR 03/01 A2983 RMK AO2 SLP104 T00280011 53023
Pressure 29.84 in
Visibility 10.0 miles
Clouds Clear
Windchill 44 °F
Dew Point 37 °F
Humidity 75%
Rainfall 0.61 in
Snow Depth Not available.
6:05 AM 7:56 PM
Waxing Crescent, 4% visible
METAR KMLI 280252Z 00000KT 10SM CLR 03/01 A2983 RMK AO2 SLP104 T00280011 53023

Get Your Daily Forecast Email!

Thanks for signing up!

Be on the lookout for a verification email in your inbox.

You'll start receiving severe weather alerts in your inbox..

×

10-Day Weather Forecast

Almanac

Astronomy

Apr. 27, 2017 Rise Set
Actual Time
Civil Twilight
Nautical Twilight
Astronomical Twilight
Moon
Length of Visible Light
Length of Day
Tomorrow will be .
, % of the Moon is Illuminated

Today's Extremes

State Highs State Lows

Community

WunderPhotos

WunderBlog® & News

Nearby

Air Quality

  Air Quality AQ Index Pollutant
Not available.

Snow Depth

Station Depth Elevation

Earthquake Activity

City Distance Mag. Time & Date
Minimum magnitude displayed is 2.5.

Coastal Water Temperatures

Place Temperature

Stations

Nearby Weather Stations

Station Location Temp. Windchill Dew Point Humidity Wind Precip. Elev Updated Type
                   

Watches & Warnings

Flood Warning
Issued: 9:46 PM CDT Apr. 27, 2017 – National Weather Service

... Flood Warning now in effect until Wednesday evening...

The Flood Warning continues for
the Mississippi River at Keithsburg.
* Until Wednesday evening.
* At 9:30 PM Thursday the stage was 14.1 feet... and steady.
* Flood stage is 14.0 feet.
* Minor flooding is occurring.
* Forecast... rise to 14.4 feet Sunday morning. Fall below flood stage
Wednesday evening.
* Impact... at 14.5 feet... water affects low lying areas in Oquawka.


Lat... Lon 4117 9106 4116 9097 4108 9091 4091 9094
      4094 9099




946 PM CDT Thu Apr 27 2017

... Flood Warning now in effect until further notice...

The Flood Warning continues for
the Mississippi River at New Boston ld17.
* Until further notice.
* At 6:00 PM Thursday the stage was 14.9 feet.
* Flood stage is 15.0 feet.
* No flooding is occurring and minor flooding is forecast.
* Forecast... rise above flood stage Friday... and continue rising to
15.4 feet Monday morning.



Lat... Lon 4124 9114 4124 9108 4116 9097 4117 9106
      4119 9111